sensor_id;sensor_type;location;lat;lon;timestamp;P1;durP1;ratioP1;P2;durP2;ratioP2
25627;SDS011;40915;50.826;4.356;2022-07-30T00:02:18;11.68;;;5.10;;
25627;SDS011;40915;50.826;4.356;2022-07-30T00:04:45;11.88;;;5.20;;
25627;SDS011;40915;50.826;4.356;2022-07-30T00:07:11;13.38;;;6.13;;
25627;SDS011;40915;50.826;4.356;2022-07-30T00:09:37;11.52;;;6.00;;
25627;SDS011;40915;50.826;4.356;2022-07-30T00:12:04;10.65;;;6.10;;
25627;SDS011;40915;50.826;4.356;2022-07-30T00:14:30;12.63;;;5.68;;
25627;SDS011;40915;50.826;4.356;2022-07-30T00:16:56;10.95;;;6.28;;
25627;SDS011;40915;50.826;4.356;2022-07-30T00:19:22;10.68;;;5.70;;
25627;SDS011;40915;50.826;4.356;2022-07-30T00:21:48;11.00;;;5.90;;
25627;SDS011;40915;50.826;4.356;2022-07-30T00:24:14;15.68;;;6.57;;
25627;SDS011;40915;50.826;4.356;2022-07-30T00:26:40;12.18;;;6.63;;
25627;SDS011;40915;50.826;4.356;2022-07-30T00:29:07;15.68;;;6.90;;
25627;SDS011;40915;50.826;4.356;2022-07-30T00:31:33;14.90;;;6.68;;
25627;SDS011;40915;50.826;4.356;2022-07-30T00:33:59;15.75;;;6.95;;
25627;SDS011;40915;50.826;4.356;2022-07-30T00:36:25;11.88;;;7.03;;
25627;SDS011;40915;50.826;4.356;2022-07-30T00:38:51;15.25;;;6.90;;
25627;SDS011;40915;50.826;4.356;2022-07-30T00:41:17;11.82;;;6.72;;
25627;SDS011;40915;50.826;4.356;2022-07-30T00:43:43;12.23;;;6.43;;
25627;SDS011;40915;50.826;4.356;2022-07-30T00:46:09;12.32;;;6.65;;
25627;SDS011;40915;50.826;4.356;2022-07-30T00:48:35;11.45;;;6.15;;
25627;SDS011;40915;50.826;4.356;2022-07-30T00:51:01;11.88;;;6.47;;
25627;SDS011;40915;50.826;4.356;2022-07-30T00:53:27;12.93;;;7.10;;
25627;SDS011;40915;50.826;4.356;2022-07-30T00:55:53;10.18;;;6.55;;
25627;SDS011;40915;50.826;4.356;2022-07-30T00:58:19;12.13;;;7.40;;
25627;SDS011;40915;50.826;4.356;2022-07-30T01:00:45;10.77;;;6.90;;
25627;SDS011;40915;50.826;4.356;2022-07-30T01:03:11;16.27;;;8.00;;
25627;SDS011;40915;50.826;4.356;2022-07-30T01:05:37;16.38;;;7.53;;
25627;SDS011;40915;50.826;4.356;2022-07-30T01:08:03;13.98;;;7.45;;
25627;SDS011;40915;50.826;4.356;2022-07-30T01:10:29;13.70;;;7.50;;
25627;SDS011;40915;50.826;4.356;2022-07-30T01:12:55;15.77;;;7.25;;
25627;SDS011;40915;50.826;4.356;2022-07-30T01:15:23;13.05;;;6.53;;
25627;SDS011;40915;50.826;4.356;2022-07-30T01:17:49;10.50;;;6.45;;
25627;SDS011;40915;50.826;4.356;2022-07-30T01:20:16;12.15;;;7.57;;
25627;SDS011;40915;50.826;4.356;2022-07-30T01:25:20;16.15;;;7.70;;
25627;SDS011;40915;50.826;4.356;2022-07-30T01:27:51;14.52;;;7.85;;
25627;SDS011;40915;50.826;4.356;2022-07-30T01:30:19;11.52;;;8.02;;
25627;SDS011;40915;50.826;4.356;2022-07-30T01:32:46;15.85;;;8.27;;
25627;SDS011;40915;50.826;4.356;2022-07-30T01:35:13;16.20;;;7.28;;
25627;SDS011;40915;50.826;4.356;2022-07-30T01:37:39;17.27;;;8.02;;
25627;SDS011;40915;50.826;4.356;2022-07-30T01:40:07;12.73;;;7.30;;
25627;SDS011;40915;50.826;4.356;2022-07-30T01:42:33;12.48;;;7.25;;
25627;SDS011;40915;50.826;4.356;2022-07-30T01:45:00;12.60;;;8.23;;
25627;SDS011;40915;50.826;4.356;2022-07-30T01:47:27;12.35;;;8.02;;
25627;SDS011;40915;50.826;4.356;2022-07-30T01:49:54;20.92;;;8.43;;
25627;SDS011;40915;50.826;4.356;2022-07-30T01:52:21;17.17;;;7.85;;
25627;SDS011;40915;50.826;4.356;2022-07-30T01:54:49;10.38;;;5.88;;
25627;SDS011;40915;50.826;4.356;2022-07-30T01:57:17;10.93;;;6.93;;
25627;SDS011;40915;50.826;4.356;2022-07-30T01:59:44;11.25;;;6.78;;
25627;SDS011;40915;50.826;4.356;2022-07-30T02:02:12;13.07;;;7.45;;
25627;SDS011;40915;50.826;4.356;2022-07-30T02:04:38;14.48;;;8.07;;
25627;SDS011;40915;50.826;4.356;2022-07-30T02:07:05;12.07;;;7.00;;
25627;SDS011;40915;50.826;4.356;2022-07-30T02:09:36;12.68;;;7.30;;
25627;SDS011;40915;50.826;4.356;2022-07-30T02:12:03;14.82;;;7.55;;
25627;SDS011;40915;50.826;4.356;2022-07-30T02:14:53;13.30;;;7.07;;
25627;SDS011;40915;50.826;4.356;2022-07-30T02:20:06;11.57;;;7.88;;
25627;SDS011;40915;50.826;4.356;2022-07-30T02:22:33;16.30;;;8.68;;
25627;SDS011;40915;50.826;4.356;2022-07-30T02:25:02;13.75;;;8.38;;
25627;SDS011;40915;50.826;4.356;2022-07-30T02:27:29;13.13;;;7.60;;
25627;SDS011;40915;50.826;4.356;2022-07-30T02:29:56;13.48;;;9.60;;
25627;SDS011;40915;50.826;4.356;2022-07-30T02:32:23;16.00;;;8.85;;
25627;SDS011;40915;50.826;4.356;2022-07-30T02:34:52;14.57;;;7.88;;
25627;SDS011;40915;50.826;4.356;2022-07-30T02:37:20;16.80;;;8.43;;
25627;SDS011;40915;50.826;4.356;2022-07-30T02:39:47;11.15;;;7.97;;
25627;SDS011;40915;50.826;4.356;2022-07-30T02:42:13;12.98;;;8.05;;
25627;SDS011;40915;50.826;4.356;2022-07-30T02:44:40;14.57;;;8.93;;
25627;SDS011;40915;50.826;4.356;2022-07-30T02:47:07;15.88;;;9.15;;
25627;SDS011;40915;50.826;4.356;2022-07-30T02:49:34;16.38;;;9.55;;
25627;SDS011;40915;50.826;4.356;2022-07-30T02:52:01;14.88;;;9.55;;
25627;SDS011;40915;50.826;4.356;2022-07-30T02:54:28;14.90;;;9.68;;
25627;SDS011;40915;50.826;4.356;2022-07-30T02:56:55;16.90;;;9.82;;
25627;SDS011;40915;50.826;4.356;2022-07-30T02:59:22;16.73;;;10.10;;
25627;SDS011;40915;50.826;4.356;2022-07-30T03:01:49;12.10;;;8.90;;
25627;SDS011;40915;50.826;4.356;2022-07-30T03:04:20;13.55;;;8.75;;
25627;SDS011;40915;50.826;4.356;2022-07-30T03:06:47;17.90;;;9.27;;
25627;SDS011;40915;50.826;4.356;2022-07-30T03:09:13;13.32;;;9.07;;
25627;SDS011;40915;50.826;4.356;2022-07-30T03:11:41;17.38;;;10.10;;
25627;SDS011;40915;50.826;4.356;2022-07-30T03:14:07;14.05;;;9.30;;
25627;SDS011;40915;50.826;4.356;2022-07-30T03:16:35;16.98;;;9.38;;
25627;SDS011;40915;50.826;4.356;2022-07-30T03:19:03;18.70;;;10.02;;
25627;SDS011;40915;50.826;4.356;2022-07-30T03:21:33;14.75;;;9.90;;
25627;SDS011;40915;50.826;4.356;2022-07-30T03:24:01;15.25;;;9.15;;
25627;SDS011;40915;50.826;4.356;2022-07-30T03:26:29;20.05;;;10.40;;
25627;SDS011;40915;50.826;4.356;2022-07-30T03:28:54;16.67;;;9.48;;
25627;SDS011;40915;50.826;4.356;2022-07-30T03:31:20;16.77;;;9.70;;
25627;SDS011;40915;50.826;4.356;2022-07-30T03:33:46;16.67;;;10.02;;
25627;SDS011;40915;50.826;4.356;2022-07-30T03:36:14;15.68;;;9.93;;
25627;SDS011;40915;50.826;4.356;2022-07-30T03:38:40;16.65;;;10.63;;
25627;SDS011;40915;50.826;4.356;2022-07-30T03:41:07;14.80;;;10.50;;
25627;SDS011;40915;50.826;4.356;2022-07-30T03:43:34;17.40;;;10.57;;
25627;SDS011;40915;50.826;4.356;2022-07-30T03:46:01;16.67;;;11.38;;
25627;SDS011;40915;50.826;4.356;2022-07-30T03:48:28;20.35;;;10.95;;
25627;SDS011;40915;50.826;4.356;2022-07-30T03:50:54;17.85;;;11.27;;
25627;SDS011;40915;50.826;4.356;2022-07-30T03:53:20;19.83;;;11.25;;
25627;SDS011;40915;50.826;4.356;2022-07-30T03:55:49;15.80;;;11.20;;
25627;SDS011;40915;50.826;4.356;2022-07-30T03:58:15;18.02;;;11.88;;
25627;SDS011;40915;50.826;4.356;2022-07-30T04:00:41;21.38;;;12.15;;
25627;SDS011;40915;50.826;4.356;2022-07-30T04:03:12;19.55;;;11.68;;
25627;SDS011;40915;50.826;4.356;2022-07-30T04:05:48;16.60;;;12.10;;
25627;SDS011;40915;50.826;4.356;2022-07-30T04:08:14;22.45;;;12.70;;
25627;SDS011;40915;50.826;4.356;2022-07-30T04:10:39;19.10;;;13.60;;
25627;SDS011;40915;50.826;4.356;2022-07-30T04:13:05;19.35;;;13.50;;
25627;SDS011;40915;50.826;4.356;2022-07-30T04:15:32;23.40;;;14.02;;
25627;SDS011;40915;50.826;4.356;2022-07-30T04:18:07;19.50;;;13.13;;
25627;SDS011;40915;50.826;4.356;2022-07-30T04:20:41;19.75;;;14.02;;
25627;SDS011;40915;50.826;4.356;2022-07-30T04:23:08;18.95;;;13.73;;
25627;SDS011;40915;50.826;4.356;2022-07-30T04:25:36;17.88;;;13.43;;
25627;SDS011;40915;50.826;4.356;2022-07-30T04:28:03;21.75;;;14.32;;
25627;SDS011;40915;50.826;4.356;2022-07-30T04:30:30;18.27;;;13.13;;
25627;SDS011;40915;50.826;4.356;2022-07-30T04:32:58;18.27;;;13.65;;
25627;SDS011;40915;50.826;4.356;2022-07-30T04:35:28;24.05;;;14.50;;
25627;SDS011;40915;50.826;4.356;2022-07-30T04:37:54;18.88;;;13.32;;
25627;SDS011;40915;50.826;4.356;2022-07-30T04:40:20;21.65;;;13.70;;
25627;SDS011;40915;50.826;4.356;2022-07-30T04:42:46;21.13;;;13.63;;
25627;SDS011;40915;50.826;4.356;2022-07-30T04:45:12;21.42;;;13.23;;
25627;SDS011;40915;50.826;4.356;2022-07-30T04:47:37;20.02;;;14.25;;
25627;SDS011;40915;50.826;4.356;2022-07-30T04:50:04;33.78;;;16.08;;
25627;SDS011;40915;50.826;4.356;2022-07-30T04:52:31;23.70;;;14.32;;
25627;SDS011;40915;50.826;4.356;2022-07-30T04:54:58;19.52;;;13.98;;
25627;SDS011;40915;50.826;4.356;2022-07-30T04:57:27;18.88;;;13.93;;
25627;SDS011;40915;50.826;4.356;2022-07-30T04:59:55;19.40;;;13.95;;
25627;SDS011;40915;50.826;4.356;2022-07-30T05:02:22;17.73;;;14.38;;
25627;SDS011;40915;50.826;4.356;2022-07-30T05:04:50;17.92;;;13.98;;
25627;SDS011;40915;50.826;4.356;2022-07-30T05:07:18;23.27;;;13.88;;
25627;SDS011;40915;50.826;4.356;2022-07-30T05:09:45;22.58;;;14.77;;
25627;SDS011;40915;50.826;4.356;2022-07-30T05:12:11;18.98;;;13.88;;
25627;SDS011;40915;50.826;4.356;2022-07-30T05:14:37;21.48;;;13.27;;
25627;SDS011;40915;50.826;4.356;2022-07-30T05:17:03;22.05;;;13.95;;
25627;SDS011;40915;50.826;4.356;2022-07-30T05:19:28;21.23;;;13.93;;
25627;SDS011;40915;50.826;4.356;2022-07-30T05:21:54;21.35;;;14.50;;
25627;SDS011;40915;50.826;4.356;2022-07-30T05:24:20;20.67;;;13.65;;
25627;SDS011;40915;50.826;4.356;2022-07-30T05:26:46;18.02;;;13.10;;
25627;SDS011;40915;50.826;4.356;2022-07-30T05:29:13;18.23;;;13.60;;
25627;SDS011;40915;50.826;4.356;2022-07-30T05:31:38;22.48;;;13.55;;
25627;SDS011;40915;50.826;4.356;2022-07-30T05:34:04;21.27;;;13.90;;
25627;SDS011;40915;50.826;4.356;2022-07-30T05:36:30;20.75;;;12.50;;
25627;SDS011;40915;50.826;4.356;2022-07-30T05:38:56;17.23;;;12.65;;
25627;SDS011;40915;50.826;4.356;2022-07-30T05:41:21;20.42;;;12.70;;
25627;SDS011;40915;50.826;4.356;2022-07-30T05:43:47;19.38;;;12.50;;
25627;SDS011;40915;50.826;4.356;2022-07-30T05:46:12;21.10;;;13.57;;
25627;SDS011;40915;50.826;4.356;2022-07-30T05:48:38;18.80;;;12.30;;
25627;SDS011;40915;50.826;4.356;2022-07-30T05:51:04;22.15;;;13.20;;
25627;SDS011;40915;50.826;4.356;2022-07-30T05:53:30;18.73;;;12.07;;
25627;SDS011;40915;50.826;4.356;2022-07-30T05:55:56;22.75;;;13.38;;
25627;SDS011;40915;50.826;4.356;2022-07-30T05:58:23;18.45;;;13.40;;
25627;SDS011;40915;50.826;4.356;2022-07-30T06:00:48;20.30;;;13.50;;
25627;SDS011;40915;50.826;4.356;2022-07-30T06:03:14;18.83;;;12.75;;
25627;SDS011;40915;50.826;4.356;2022-07-30T06:05:40;17.55;;;11.95;;
25627;SDS011;40915;50.826;4.356;2022-07-30T06:08:05;20.70;;;11.95;;
25627;SDS011;40915;50.826;4.356;2022-07-30T06:10:31;20.15;;;12.93;;
25627;SDS011;40915;50.826;4.356;2022-07-30T06:12:57;21.60;;;12.10;;
25627;SDS011;40915;50.826;4.356;2022-07-30T06:15:23;15.52;;;11.15;;
25627;SDS011;40915;50.826;4.356;2022-07-30T06:17:49;15.70;;;10.27;;
25627;SDS011;40915;50.826;4.356;2022-07-30T06:20:15;13.40;;;9.27;;
25627;SDS011;40915;50.826;4.356;2022-07-30T06:22:42;15.02;;;9.52;;
25627;SDS011;40915;50.826;4.356;2022-07-30T06:25:08;11.75;;;7.93;;
25627;SDS011;40915;50.826;4.356;2022-07-30T06:27:34;14.43;;;8.98;;
25627;SDS011;40915;50.826;4.356;2022-07-30T06:30:00;16.65;;;9.10;;
25627;SDS011;40915;50.826;4.356;2022-07-30T06:32:30;17.55;;;8.70;;
25627;SDS011;40915;50.826;4.356;2022-07-30T06:34:56;13.13;;;7.70;;
25627;SDS011;40915;50.826;4.356;2022-07-30T06:37:22;10.43;;;6.68;;
25627;SDS011;40915;50.826;4.356;2022-07-30T06:39:50;13.38;;;7.95;;
25627;SDS011;40915;50.826;4.356;2022-07-30T06:42:15;11.15;;;6.30;;
25627;SDS011;40915;50.826;4.356;2022-07-30T06:44:41;16.75;;;8.32;;
25627;SDS011;40915;50.826;4.356;2022-07-30T06:47:07;12.13;;;6.63;;
25627;SDS011;40915;50.826;4.356;2022-07-30T06:49:34;10.18;;;6.40;;
25627;SDS011;40915;50.826;4.356;2022-07-30T06:52:00;9.40;;;7.07;;
25627;SDS011;40915;50.826;4.356;2022-07-30T06:54:26;8.52;;;6.43;;
25627;SDS011;40915;50.826;4.356;2022-07-30T06:56:51;9.60;;;6.68;;
25627;SDS011;40915;50.826;4.356;2022-07-30T06:59:17;9.07;;;6.03;;
25627;SDS011;40915;50.826;4.356;2022-07-30T07:01:43;9.65;;;6.03;;
25627;SDS011;40915;50.826;4.356;2022-07-30T07:04:09;13.05;;;5.68;;
25627;SDS011;40915;50.826;4.356;2022-07-30T07:06:34;11.40;;;6.30;;
25627;SDS011;40915;50.826;4.356;2022-07-30T07:09:00;10.02;;;6.45;;
25627;SDS011;40915;50.826;4.356;2022-07-30T07:11:26;10.95;;;7.00;;
25627;SDS011;40915;50.826;4.356;2022-07-30T07:13:51;11.57;;;6.00;;
25627;SDS011;40915;50.826;4.356;2022-07-30T07:16:17;10.65;;;5.43;;
25627;SDS011;40915;50.826;4.356;2022-07-30T07:18:45;8.95;;;4.28;;
25627;SDS011;40915;50.826;4.356;2022-07-30T07:21:12;8.93;;;4.03;;
25627;SDS011;40915;50.826;4.356;2022-07-30T07:23:38;8.45;;;3.13;;
25627;SDS011;40915;50.826;4.356;2022-07-30T07:26:03;8.57;;;3.20;;
25627;SDS011;40915;50.826;4.356;2022-07-30T07:28:29;5.00;;;2.67;;
25627;SDS011;40915;50.826;4.356;2022-07-30T07:30:54;8.80;;;2.58;;
25627;SDS011;40915;50.826;4.356;2022-07-30T07:33:20;8.23;;;2.00;;
25627;SDS011;40915;50.826;4.356;2022-07-30T07:35:46;6.50;;;2.33;;
25627;SDS011;40915;50.826;4.356;2022-07-30T07:38:11;3.97;;;2.08;;
25627;SDS011;40915;50.826;4.356;2022-07-30T07:40:37;2.75;;;1.48;;
25627;SDS011;40915;50.826;4.356;2022-07-30T07:43:02;4.57;;;2.42;;
25627;SDS011;40915;50.826;4.356;2022-07-30T07:45:29;4.75;;;1.88;;
25627;SDS011;40915;50.826;4.356;2022-07-30T07:47:55;4.65;;;2.13;;
25627;SDS011;40915;50.826;4.356;2022-07-30T07:50:20;6.10;;;2.10;;
25627;SDS011;40915;50.826;4.356;2022-07-30T07:52:46;5.88;;;2.15;;
25627;SDS011;40915;50.826;4.356;2022-07-30T07:55:12;4.32;;;1.70;;
25627;SDS011;40915;50.826;4.356;2022-07-30T07:57:41;3.80;;;1.30;;
25627;SDS011;40915;50.826;4.356;2022-07-30T08:00:09;3.20;;;1.38;;
25627;SDS011;40915;50.826;4.356;2022-07-30T08:02:36;2.70;;;1.33;;
25627;SDS011;40915;50.826;4.356;2022-07-30T08:05:03;5.63;;;2.22;;
25627;SDS011;40915;50.826;4.356;2022-07-30T08:07:29;3.45;;;1.90;;
25627;SDS011;40915;50.826;4.356;2022-07-30T08:09:56;3.33;;;1.70;;
25627;SDS011;40915;50.826;4.356;2022-07-30T08:12:21;3.67;;;1.58;;
25627;SDS011;40915;50.826;4.356;2022-07-30T08:14:47;4.65;;;1.35;;
25627;SDS011;40915;50.826;4.356;2022-07-30T08:17:13;3.90;;;1.73;;
25627;SDS011;40915;50.826;4.356;2022-07-30T08:19:39;4.10;;;1.30;;
25627;SDS011;40915;50.826;4.356;2022-07-30T08:22:04;2.63;;;1.30;;
25627;SDS011;40915;50.826;4.356;2022-07-30T08:24:30;2.45;;;1.40;;
25627;SDS011;40915;50.826;4.356;2022-07-30T08:26:56;2.50;;;1.42;;
25627;SDS011;40915;50.826;4.356;2022-07-30T08:29:22;4.20;;;1.55;;
25627;SDS011;40915;50.826;4.356;2022-07-30T08:31:48;5.43;;;1.50;;
25627;SDS011;40915;50.826;4.356;2022-07-30T08:34:13;4.78;;;1.70;;
25627;SDS011;40915;50.826;4.356;2022-07-30T08:36:39;3.58;;;1.60;;
25627;SDS011;40915;50.826;4.356;2022-07-30T08:39:05;3.63;;;1.70;;
25627;SDS011;40915;50.826;4.356;2022-07-30T08:41:31;3.20;;;1.60;;
25627;SDS011;40915;50.826;4.356;2022-07-30T08:43:57;3.88;;;1.52;;
25627;SDS011;40915;50.826;4.356;2022-07-30T08:46:25;4.55;;;1.70;;
25627;SDS011;40915;50.826;4.356;2022-07-30T08:48:54;4.97;;;1.63;;
25627;SDS011;40915;50.826;4.356;2022-07-30T08:51:21;3.42;;;1.23;;
25627;SDS011;40915;50.826;4.356;2022-07-30T08:53:48;4.85;;;1.50;;
25627;SDS011;40915;50.826;4.356;2022-07-30T08:56:14;2.17;;;1.35;;
25627;SDS011;40915;50.826;4.356;2022-07-30T08:58:41;3.50;;;1.50;;
25627;SDS011;40915;50.826;4.356;2022-07-30T09:01:07;4.25;;;1.60;;
25627;SDS011;40915;50.826;4.356;2022-07-30T09:03:33;4.97;;;1.58;;
25627;SDS011;40915;50.826;4.356;2022-07-30T09:06:01;3.10;;;1.30;;
25627;SDS011;40915;50.826;4.356;2022-07-30T09:08:28;6.18;;;1.90;;
25627;SDS011;40915;50.826;4.356;2022-07-30T09:10:54;5.40;;;1.45;;
25627;SDS011;40915;50.826;4.356;2022-07-30T09:13:26;7.22;;;1.50;;
25627;SDS011;40915;50.826;4.356;2022-07-30T09:15:58;3.05;;;1.70;;
25627;SDS011;40915;50.826;4.356;2022-07-30T09:18:35;5.00;;;1.60;;
25627;SDS011;40915;50.826;4.356;2022-07-30T09:23:59;4.20;;;1.45;;
25627;SDS011;40915;50.826;4.356;2022-07-30T09:26:28;3.88;;;1.70;;
25627;SDS011;40915;50.826;4.356;2022-07-30T09:28:54;4.53;;;1.98;;
25627;SDS011;40915;50.826;4.356;2022-07-30T09:31:21;3.22;;;1.63;;
25627;SDS011;40915;50.826;4.356;2022-07-30T09:33:47;4.88;;;1.50;;
25627;SDS011;40915;50.826;4.356;2022-07-30T09:36:14;5.93;;;1.90;;
25627;SDS011;40915;50.826;4.356;2022-07-30T09:38:41;4.15;;;1.67;;
25627;SDS011;40915;50.826;4.356;2022-07-30T09:41:16;4.40;;;1.88;;
25627;SDS011;40915;50.826;4.356;2022-07-30T09:43:45;3.90;;;1.80;;
25627;SDS011;40915;50.826;4.356;2022-07-30T09:46:12;4.57;;;1.60;;
25627;SDS011;40915;50.826;4.356;2022-07-30T09:48:39;5.22;;;1.63;;
25627;SDS011;40915;50.826;4.356;2022-07-30T09:51:05;3.78;;;2.20;;
25627;SDS011;40915;50.826;4.356;2022-07-30T09:53:30;3.47;;;1.73;;
25627;SDS011;40915;50.826;4.356;2022-07-30T09:55:56;5.43;;;1.95;;
25627;SDS011;40915;50.826;4.356;2022-07-30T09:58:23;3.88;;;1.85;;
25627;SDS011;40915;50.826;4.356;2022-07-30T10:01:01;5.35;;;1.70;;
25627;SDS011;40915;50.826;4.356;2022-07-30T10:03:27;6.13;;;1.60;;
25627;SDS011;40915;50.826;4.356;2022-07-30T10:05:54;4.30;;;2.00;;
25627;SDS011;40915;50.826;4.356;2022-07-30T10:08:36;6.20;;;1.65;;
25627;SDS011;40915;50.826;4.356;2022-07-30T10:11:02;4.40;;;1.90;;
25627;SDS011;40915;50.826;4.356;2022-07-30T10:13:28;5.50;;;2.00;;
25627;SDS011;40915;50.826;4.356;2022-07-30T10:15:55;3.95;;;1.88;;
25627;SDS011;40915;50.826;4.356;2022-07-30T10:18:21;3.75;;;1.75;;
25627;SDS011;40915;50.826;4.356;2022-07-30T10:20:47;4.63;;;2.17;;
25627;SDS011;40915;50.826;4.356;2022-07-30T10:23:13;3.85;;;1.75;;
25627;SDS011;40915;50.826;4.356;2022-07-30T10:25:39;5.35;;;1.80;;
25627;SDS011;40915;50.826;4.356;2022-07-30T10:28:05;3.83;;;1.60;;
25627;SDS011;40915;50.826;4.356;2022-07-30T10:30:31;6.75;;;2.08;;
25627;SDS011;40915;50.826;4.356;2022-07-30T10:32:57;3.58;;;1.65;;
25627;SDS011;40915;50.826;4.356;2022-07-30T10:35:23;5.07;;;2.15;;
25627;SDS011;40915;50.826;4.356;2022-07-30T10:37:49;5.15;;;2.30;;
25627;SDS011;40915;50.826;4.356;2022-07-30T10:40:19;4.55;;;2.22;;
25627;SDS011;40915;50.826;4.356;2022-07-30T10:48:34;7.28;;;2.28;;
25627;SDS011;40915;50.826;4.356;2022-07-30T10:51:00;6.63;;;2.35;;
25627;SDS011;40915;50.826;4.356;2022-07-30T10:53:36;7.82;;;2.55;;
25627;SDS011;40915;50.826;4.356;2022-07-30T10:56:10;7.20;;;2.63;;
25627;SDS011;40915;50.826;4.356;2022-07-30T10:59:04;6.55;;;2.42;;
25627;SDS011;40915;50.826;4.356;2022-07-30T11:06:46;4.13;;;1.90;;
25627;SDS011;40915;50.826;4.356;2022-07-30T11:12:07;4.15;;;1.80;;
25627;SDS011;40915;50.826;4.356;2022-07-30T11:17:15;3.47;;;1.92;;
25627;SDS011;40915;50.826;4.356;2022-07-30T11:22:40;4.78;;;2.00;;
25627;SDS011;40915;50.826;4.356;2022-07-30T11:25:53;3.92;;;1.80;;
25627;SDS011;40915;50.826;4.356;2022-07-30T11:27:54;5.80;;;1.80;;
25627;SDS011;40915;50.826;4.356;2022-07-30T11:32:50;3.92;;;1.55;;
25627;SDS011;40915;50.826;4.356;2022-07-30T11:38:06;6.50;;;1.67;;
25627;SDS011;40915;50.826;4.356;2022-07-30T11:45:43;3.67;;;1.58;;
25627;SDS011;40915;50.826;4.356;2022-07-30T11:48:10;5.88;;;1.40;;
25627;SDS011;40915;50.826;4.356;2022-07-30T11:50:38;5.40;;;2.20;;
25627;SDS011;40915;50.826;4.356;2022-07-30T11:53:09;3.78;;;1.67;;
25627;SDS011;40915;50.826;4.356;2022-07-30T11:55:41;5.18;;;1.52;;
25627;SDS011;40915;50.826;4.356;2022-07-30T11:58:08;4.68;;;1.70;;
25627;SDS011;40915;50.826;4.356;2022-07-30T12:00:46;1.98;;;1.20;;
25627;SDS011;40915;50.826;4.356;2022-07-30T12:03:16;2.58;;;1.52;;
25627;SDS011;40915;50.826;4.356;2022-07-30T12:05:42;3.60;;;1.88;;
25627;SDS011;40915;50.826;4.356;2022-07-30T12:08:09;6.95;;;1.80;;
25627;SDS011;40915;50.826;4.356;2022-07-30T12:10:36;2.88;;;1.40;;
25627;SDS011;40915;50.826;4.356;2022-07-30T12:15:39;5.07;;;1.52;;
25627;SDS011;40915;50.826;4.356;2022-07-30T12:18:07;2.50;;;1.40;;
25627;SDS011;40915;50.826;4.356;2022-07-30T12:20:36;3.40;;;1.40;;
25627;SDS011;40915;50.826;4.356;2022-07-30T12:23:08;3.65;;;1.40;;
25627;SDS011;40915;50.826;4.356;2022-07-30T12:25:37;5.55;;;1.70;;
25627;SDS011;40915;50.826;4.356;2022-07-30T12:28:03;3.20;;;1.55;;
25627;SDS011;40915;50.826;4.356;2022-07-30T12:30:29;4.95;;;1.90;;
25627;SDS011;40915;50.826;4.356;2022-07-30T12:32:54;3.50;;;1.60;;
25627;SDS011;40915;50.826;4.356;2022-07-30T12:35:20;7.60;;;1.77;;
25627;SDS011;40915;50.826;4.356;2022-07-30T12:38:00;5.85;;;1.50;;
25627;SDS011;40915;50.826;4.356;2022-07-30T12:40:27;4.50;;;1.50;;
25627;SDS011;40915;50.826;4.356;2022-07-30T12:42:53;4.07;;;1.50;;
25627;SDS011;40915;50.826;4.356;2022-07-30T12:45:29;6.55;;;1.80;;
25627;SDS011;40915;50.826;4.356;2022-07-30T12:47:59;4.47;;;1.30;;
25627;SDS011;40915;50.826;4.356;2022-07-30T12:50:25;4.85;;;1.55;;
25627;SDS011;40915;50.826;4.356;2022-07-30T12:52:52;3.85;;;1.40;;
25627;SDS011;40915;50.826;4.356;2022-07-30T12:55:32;6.30;;;1.40;;
25627;SDS011;40915;50.826;4.356;2022-07-30T12:58:01;2.22;;;1.33;;
25627;SDS011;40915;50.826;4.356;2022-07-30T13:00:47;5.32;;;1.50;;
25627;SDS011;40915;50.826;4.356;2022-07-30T13:05:53;2.65;;;1.60;;
25627;SDS011;40915;50.826;4.356;2022-07-30T13:08:20;5.30;;;1.55;;
25627;SDS011;40915;50.826;4.356;2022-07-30T13:11:05;4.32;;;1.42;;
25627;SDS011;40915;50.826;4.356;2022-07-30T13:13:31;5.75;;;1.70;;
25627;SDS011;40915;50.826;4.356;2022-07-30T13:16:02;4.00;;;1.70;;
25627;SDS011;40915;50.826;4.356;2022-07-30T13:18:29;4.82;;;1.52;;
25627;SDS011;40915;50.826;4.356;2022-07-30T13:20:56;5.15;;;1.50;;
25627;SDS011;40915;50.826;4.356;2022-07-30T13:23:23;3.60;;;1.63;;
25627;SDS011;40915;50.826;4.356;2022-07-30T13:25:49;3.15;;;1.65;;
25627;SDS011;40915;50.826;4.356;2022-07-30T13:28:15;7.32;;;1.65;;
25627;SDS011;40915;50.826;4.356;2022-07-30T13:30:41;5.90;;;1.65;;
25627;SDS011;40915;50.826;4.356;2022-07-30T13:33:08;3.28;;;1.60;;
25627;SDS011;40915;50.826;4.356;2022-07-30T13:35:33;3.63;;;1.45;;
25627;SDS011;40915;50.826;4.356;2022-07-30T13:37:59;4.20;;;1.40;;
25627;SDS011;40915;50.826;4.356;2022-07-30T13:40:26;3.95;;;1.70;;
25627;SDS011;40915;50.826;4.356;2022-07-30T13:42:52;2.58;;;1.30;;
25627;SDS011;40915;50.826;4.356;2022-07-30T13:45:17;4.57;;;1.23;;
25627;SDS011;40915;50.826;4.356;2022-07-30T13:47:43;3.95;;;1.50;;
25627;SDS011;40915;50.826;4.356;2022-07-30T13:50:09;2.65;;;1.30;;
25627;SDS011;40915;50.826;4.356;2022-07-30T13:52:34;5.45;;;1.90;;
25627;SDS011;40915;50.826;4.356;2022-07-30T13:55:00;4.03;;;1.70;;
25627;SDS011;40915;50.826;4.356;2022-07-30T13:57:25;6.03;;;2.13;;
25627;SDS011;40915;50.826;4.356;2022-07-30T13:59:51;4.78;;;1.65;;
25627;SDS011;40915;50.826;4.356;2022-07-30T14:02:17;5.95;;;1.80;;
25627;SDS011;40915;50.826;4.356;2022-07-30T14:04:43;3.35;;;1.75;;
25627;SDS011;40915;50.826;4.356;2022-07-30T14:07:08;8.32;;;1.63;;
25627;SDS011;40915;50.826;4.356;2022-07-30T14:09:34;4.60;;;1.63;;
25627;SDS011;40915;50.826;4.356;2022-07-30T14:12:00;6.85;;;2.05;;
25627;SDS011;40915;50.826;4.356;2022-07-30T14:14:25;4.50;;;1.58;;
25627;SDS011;40915;50.826;4.356;2022-07-30T14:16:51;5.90;;;1.40;;
25627;SDS011;40915;50.826;4.356;2022-07-30T14:19:17;4.18;;;1.77;;
25627;SDS011;40915;50.826;4.356;2022-07-30T14:21:47;3.90;;;1.80;;
25627;SDS011;40915;50.826;4.356;2022-07-30T14:24:23;3.70;;;1.25;;
25627;SDS011;40915;50.826;4.356;2022-07-30T14:26:49;5.78;;;1.70;;
25627;SDS011;40915;50.826;4.356;2022-07-30T14:29:15;3.30;;;1.30;;
25627;SDS011;40915;50.826;4.356;2022-07-30T14:31:41;2.55;;;1.23;;
25627;SDS011;40915;50.826;4.356;2022-07-30T14:34:07;3.75;;;1.50;;
25627;SDS011;40915;50.826;4.356;2022-07-30T14:36:34;3.70;;;1.40;;
25627;SDS011;40915;50.826;4.356;2022-07-30T14:39:01;3.97;;;1.75;;
25627;SDS011;40915;50.826;4.356;2022-07-30T14:41:28;5.80;;;1.70;;
25627;SDS011;40915;50.826;4.356;2022-07-30T14:43:54;4.47;;;1.30;;
25627;SDS011;40915;50.826;4.356;2022-07-30T14:46:20;3.53;;;1.60;;
25627;SDS011;40915;50.826;4.356;2022-07-30T14:48:47;3.33;;;1.60;;
25627;SDS011;40915;50.826;4.356;2022-07-30T14:51:14;3.47;;;1.42;;
25627;SDS011;40915;50.826;4.356;2022-07-30T14:53:40;3.15;;;1.33;;
25627;SDS011;40915;50.826;4.356;2022-07-30T14:56:05;4.45;;;1.35;;
25627;SDS011;40915;50.826;4.356;2022-07-30T14:58:31;5.68;;;1.30;;
25627;SDS011;40915;50.826;4.356;2022-07-30T15:00:57;4.80;;;1.30;;
25627;SDS011;40915;50.826;4.356;2022-07-30T15:03:22;2.97;;;1.52;;
25627;SDS011;40915;50.826;4.356;2022-07-30T15:05:48;3.58;;;1.30;;
25627;SDS011;40915;50.826;4.356;2022-07-30T15:08:13;1.83;;;1.33;;
25627;SDS011;40915;50.826;4.356;2022-07-30T15:10:39;4.70;;;1.58;;
25627;SDS011;40915;50.826;4.356;2022-07-30T15:13:05;3.15;;;1.40;;
25627;SDS011;40915;50.826;4.356;2022-07-30T15:15:30;4.03;;;1.38;;
25627;SDS011;40915;50.826;4.356;2022-07-30T15:17:57;3.72;;;1.63;;
25627;SDS011;40915;50.826;4.356;2022-07-30T15:20:23;3.42;;;1.50;;
25627;SDS011;40915;50.826;4.356;2022-07-30T15:22:49;3.13;;;1.35;;